Flinterbirka — PHFQ — position and weather

sailwx.info

Track history (hours):
 
Tides and Currents Weather Stations Pressure Air Temp Water Temp Dewpoint Dewpoint Depression Visibility Wind Speed Wind Dir Waves Ship Positions

Flinterbirka

Last reported at 2014-Oct-31 21:33 UTC. Time now 2014-Oct-31 21:54 UTC.
Position N 54°22' E 010°08'.

Length 83 m; draft 5.5 m.

Type: Cargo ship. MMSI: 246525000.

Date/timePositionNaut miles runAvg speedWind from/ knotsBaromVisibWave heightAir tempDewpointWater temp
2014-Oct-31 21:33N 54°22' E 010°08'6 6.2
2014-Oct-31 20:33N 54°21' E 009°58'5 4.6
2014-Oct-31 19:33N 54°22' E 009°50'8 7.9
2014-Oct-31 18:32N 54°17' E 009°39'8 7.6
2014-Oct-31 17:29N 54°11' E 009°30'7 7.1
2014-Oct-31 16:33N 54°08' E 009°20'9 8.7
2014-Oct-31 15:34N 53°59' E 009°17'8 7.7
2014-Oct-31 14:34N 53°54' E 009°09'3 3.1
2014-Oct-31 13:34N 53°52' E 009°04'9 8.9
2014-Oct-31 12:34N 53°50' E 008°49'7 7.3
2014-Oct-31 11:33N 53°55' E 008°40'8 8.1
2014-Oct-31 10:33N 53°59' E 008°28'9 9.2
2014-Oct-31 09:34N 53°60' E 008°12'11 9.9
2014-Oct-31 08:26N 53°57' E 007°54'37 9.6
2014-Oct-31 04:33N 53°48' E 006°52'3210.7
2014-Oct-31 01:31N 53°40' E 005°60'1111.5
2014-Oct-31 00:33N 53°36' E 005°42'1211.6
2014-Oct-30 23:33N 53°33' E 005°23'1211.7
2014-Oct-30 22:33N 53°29' E 005°05'1212.1
2014-Oct-30 21:33N 53°24' E 004°46'2612.3
2014-Oct-30 19:25N 53°02' E 004°23'1011.9
2014-Oct-30 18:33N 52°52' E 004°16'1111.1
2014-Oct-30 17:33N 52°44' E 004°05'1110.7
2014-Oct-30 16:33N 52°36' E 003°53'22 9.9
2014-Oct-30 14:20N 52°20' E 003°27'8 9.3
2014-Oct-30 13:31N 52°15' E 003°19'47 9.3
2014-Oct-30 08:31N 51°48' E 002°16'1111.4
2014-Oct-30 07:33N 51°42' E 002°02'10 9.9
2014-Oct-30 06:33N 51°36' E 001°49'1211.7
2014-Oct-30 05:33N 51°31' E 001°32'1110.5
2014-Oct-30 04:33N 51°29' E 001°16'10 9.9
2014-Oct-30 03:33N 51°29' E 000°60'9 8.8
2014-Oct-30 02:33N 51°27' E 000°46'8 7.9
2014-Oct-30 01:32N 51°24' E 000°34'1 0.1
2014-Oct-29 08:27N 51°24' E 000°33'0 0.0
2014-Oct-29 05:24N 51°24' E 000°33'1 0.7
2014-Oct-29 04:33N 51°24' E 000°34'9 9.0
2014-Oct-29 03:33N 51°28' E 000°47'8 7.7
2014-Oct-29 02:34N 51°29' E 000°59'10 9.7
2014-Oct-29 01:33N 51°29' E 001°14'1010.4
2014-Oct-29 00:33N 51°29' E 001°31'1211.8
2014-Oct-28 23:33N 51°29' E 001°50'1111.2
2014-Oct-28 22:33N 51°23' E 002°05'1211.4
2014-Oct-28 21:32N 51°21' E 002°23'1212.3
2014-Oct-28 20:33N 51°22' E 002°43'1111.5
2014-Oct-28 19:33N 51°24' E 003°01'1212.2
2014-Oct-28 18:32N 51°25' E 003°21'1212.6
2014-Oct-28 17:33N 51°26' E 003°40'8 8.2
2014-Oct-28 16:33N 51°20' E 003°49'4 4.3
2014-Oct-28 15:33N 51°16' E 003°50'7 7.1
2014-Oct-28 14:33N 51°09' E 003°47'4 3.5
2014-Oct-28 13:33N 51°06' E 003°45'0 0.0
2014-Oct-28 12:32N 51°06' E 003°45'0 0.0
2014-Oct-28 11:30N 51°06' E 003°45'0 0.0
2014-Oct-28 10:33N 51°06' E 003°45'0 0.0
2014-Oct-28 09:32N 51°06' E 003°45'0 0.0
2014-Oct-28 08:32N 51°06' E 003°45'0 0.0
2014-Oct-28 07:32N 51°06' E 003°45'0 0.0
2014-Oct-28 06:31N 51°06' E 003°45'0 0.0
2014-Oct-28 05:31N 51°06' E 003°45'0 0.0
2014-Oct-28 04:27N 51°06' E 003°45'0 0.0
2014-Oct-28 03:30N 51°06' E 003°45'0 0.0
2014-Oct-28 02:29N 51°06' E 003°45'0 0.0
2014-Oct-28 01:32N 51°06' E 003°45'0 0.0
2014-Oct-28 00:32N 51°06' E 003°45'0 0.0
2014-Oct-27 23:28N 51°06' E 003°45'0 0.0
2014-Oct-27 22:16N 51°06' E 003°45'0 0.0
2014-Oct-27 21:30N 51°06' E 003°45'0 0.0
2014-Oct-27 20:33N 51°06' E 003°45'0 0.0
2014-Oct-27 19:32N 51°06' E 003°45'0 0.0
2014-Oct-27 18:32N 51°06' E 003°45'0 0.0
2014-Oct-27 17:31N 51°06' E 003°45'0 0.0
2014-Oct-27 16:31N 51°06' E 003°45'0 0.0
2014-Oct-27 15:31N 51°06' E 003°45'0 0.0
2014-Oct-27 14:31N 51°06' E 003°45'0 0.0
2014-Oct-27 13:30N 51°06' E 003°45'0 0.0
2014-Oct-27 12:29N 51°06' E 003°45'0 0.0
2014-Oct-27 11:23N 51°06' E 003°45'0 0.0
2014-Oct-27 10:28N 51°06' E 003°45'0 0.0
2014-Oct-27 09:28N 51°06' E 003°45'0 0.0
2014-Oct-27 08:33N 51°06' E 003°45'0 0.0
2014-Oct-27 07:33N 51°06' E 003°45'0 0.0
2014-Oct-27 06:33N 51°06' E 003°45'5 4.7
2014-Oct-27 05:34N 51°10' E 003°48'7 7.1
2014-Oct-27 04:33N 51°17' E 003°50'3 3.4
2014-Oct-27 03:34N 51°20' E 003°49'8 8.2
2014-Oct-27 02:33N 51°25' E 003°38'3 2.6
2014-Oct-27 01:33N 51°26' E 003°34'7 7.4
2014-Oct-27 00:33N 51°31' E 003°26'9 8.5
2014-Oct-26 23:32N 51°39' E 003°19'8 8.2
2014-Oct-26 22:32N 51°47' E 003°16'63 7.9
2014-Oct-26 14:33N 52°45' E 003°53'56 7.0
2014-Oct-26 06:33N 53°30' E 004°48'8 6.8
2014-Oct-26 05:24N 53°33' E 004°60'6 7.4
2014-Oct-26 04:33N 53°35' E 005°10'9 9.0
2014-Oct-26 03:33N 53°38' E 005°24'1010.3
2014-Oct-26 02:33N 53°41' E 005°41'1010.4
2014-Oct-26 01:33N 53°45' E 005°58'56 9.2
2014-Oct-25 19:26N 53°60' E 007°29'9 9.8
2014-Oct-25 18:33N 54°02' E 007°43'1010.4
2014-Oct-25 17:33N 54°01' E 008°01'1111.1
2014-Oct-25 16:33N 54°00' E 008°20'1212.3
2014-Oct-25 15:33N 53°56' E 008°40'10 9.7
2014-Oct-25 14:33N 53°51' E 008°53'9 8.5
2014-Oct-25 13:33N 53°53' E 009°07'2 1.7
2014-Oct-25 12:31N 53°54' E 009°09'29 6.6
2014-Oct-25 08:06N 54°17' E 009°39'4 7.7
2014-Oct-25 07:33N 54°20' E 009°44'6 5.6
2014-Oct-25 06:33N 54°21' E 009°54'6 6.0
2014-Oct-25 05:33N 54°22' E 010°04'3 2.8
2014-Oct-25 04:34N 54°22' E 010°09'3 3.2
2014-Oct-25 03:33N 54°24' E 010°12'9 9.5
2014-Oct-25 02:33N 54°31' E 010°23'38 9.3
2014-Oct-24 22:32N 54°32' E 011°28'12 9.8
2014-Oct-24 21:18N 54°27' E 011°47'7 9.7
2014-Oct-24 20:33N 54°27' E 011°59'74 8.9
2014-Oct-24 12:15N 54°48' E 014°02'7 9.5
2014-Oct-24 11:29N 54°49' E 014°14'9 9.3
2014-Oct-24 10:32N 54°49' E 014°30'9 9.5
2014-Oct-24 09:33N 54°49' E 014°46'10 9.8
2014-Oct-24 08:34N 54°49' E 015°03'10010.0
2014-Oct-23 22:33N 54°55' E 017°56'1010.2
2014-Oct-23 21:33N 54°55' E 018°14'1010.2
2014-Oct-23 20:34N 54°55' E 018°32'1010.0
2014-Oct-23 19:33N 54°52' E 018°48'1010.0
2014-Oct-23 18:33N 54°49' E 019°05'1010.1
2014-Oct-23 17:34N 54°45' E 019°21'1010.1
2014-Oct-23 16:33N 54°42' E 019°38'10 9.9
2014-Oct-23 15:33N 54°38' E 019°54'1 0.2
2014-Oct-23 11:33N 54°38' E 019°55'8 2.1
2014-Oct-23 07:30N 54°44' E 019°45'  
Track history (hours):
 
Tides and Currents Weather Stations Pressure Air Temp Water Temp Dewpoint Dewpoint Depression Visibility Wind Speed Wind Dir Waves Ship Positions

Flinterbirka

Last reported at 2014-Oct-31 21:33 UTC. Time now 2014-Oct-31 21:54 UTC.
Position N 54°22' E 010°08'.

Length 83 m; draft 5.5 m.

Type: Cargo ship. MMSI: 246525000.

Date/timePositionNaut miles runAvg speedWind from/ knotsBaromVisibWave heightAir tempDewpointWater temp
2014-Oct-31 21:33N 54°22' E 010°08'6 6.2
2014-Oct-31 20:33N 54°21' E 009°58'5 4.6
2014-Oct-31 19:33N 54°22' E 009°50'8 7.9
2014-Oct-31 18:32N 54°17' E 009°39'8 7.6
2014-Oct-31 17:29N 54°11' E 009°30'7 7.1
2014-Oct-31 16:33N 54°08' E 009°20'9 8.7
2014-Oct-31 15:34N 53°59' E 009°17'8 7.7
2014-Oct-31 14:34N 53°54' E 009°09'3 3.1
2014-Oct-31 13:34N 53°52' E 009°04'9 8.9
2014-Oct-31 12:34N 53°50' E 008°49'7 7.3
2014-Oct-31 11:33N 53°55' E 008°40'8 8.1
2014-Oct-31 10:33N 53°59' E 008°28'9 9.2
2014-Oct-31 09:34N 53°60' E 008°12'11 9.9
2014-Oct-31 08:26N 53°57' E 007°54'37 9.6
2014-Oct-31 04:33N 53°48' E 006°52'3210.7
2014-Oct-31 01:31N 53°40' E 005°60'1111.5
2014-Oct-31 00:33N 53°36' E 005°42'1211.6
2014-Oct-30 23:33N 53°33' E 005°23'1211.7
2014-Oct-30 22:33N 53°29' E 005°05'1212.1
2014-Oct-30 21:33N 53°24' E 004°46'2612.3
2014-Oct-30 19:25N 53°02' E 004°23'1011.9
2014-Oct-30 18:33N 52°52' E 004°16'1111.1
2014-Oct-30 17:33N 52°44' E 004°05'1110.7
2014-Oct-30 16:33N 52°36' E 003°53'22 9.9
2014-Oct-30 14:20N 52°20' E 003°27'8 9.3
2014-Oct-30 13:31N 52°15' E 003°19'47 9.3
2014-Oct-30 08:31N 51°48' E 002°16'1111.4
2014-Oct-30 07:33N 51°42' E 002°02'10 9.9
2014-Oct-30 06:33N 51°36' E 001°49'1211.7
2014-Oct-30 05:33N 51°31' E 001°32'1110.5
2014-Oct-30 04:33N 51°29' E 001°16'10 9.9
2014-Oct-30 03:33N 51°29' E 000°60'9 8.8
2014-Oct-30 02:33N 51°27' E 000°46'8 7.9
2014-Oct-30 01:32N 51°24' E 000°34'1 0.1
2014-Oct-29 08:27N 51°24' E 000°33'0 0.0
2014-Oct-29 05:24N 51°24' E 000°33'1 0.7
2014-Oct-29 04:33N 51°24' E 000°34'9 9.0
2014-Oct-29 03:33N 51°28' E 000°47'8 7.7
2014-Oct-29 02:34N 51°29' E 000°59'10 9.7
2014-Oct-29 01:33N 51°29' E 001°14'1010.4
2014-Oct-29 00:33N 51°29' E 001°31'1211.8
2014-Oct-28 23:33N 51°29' E 001°50'1111.2
2014-Oct-28 22:33N 51°23' E 002°05'1211.4
2014-Oct-28 21:32N 51°21' E 002°23'1212.3
2014-Oct-28 20:33N 51°22' E 002°43'1111.5
2014-Oct-28 19:33N 51°24' E 003°01'1212.2
2014-Oct-28 18:32N 51°25' E 003°21'1212.6
2014-Oct-28 17:33N 51°26' E 003°40'8 8.2
2014-Oct-28 16:33N 51°20' E 003°49'4 4.3
2014-Oct-28 15:33N 51°16' E 003°50'7 7.1
2014-Oct-28 14:33N 51°09' E 003°47'4 3.5
2014-Oct-28 13:33N 51°06' E 003°45'0 0.0
2014-Oct-28 12:32N 51°06' E 003°45'0 0.0
2014-Oct-28 11:30N 51°06' E 003°45'0 0.0
2014-Oct-28 10:33N 51°06' E 003°45'0 0.0
2014-Oct-28 09:32N 51°06' E 003°45'0 0.0
2014-Oct-28 08:32N 51°06' E 003°45'0 0.0
2014-Oct-28 07:32N 51°06' E 003°45'0 0.0
2014-Oct-28 06:31N 51°06' E 003°45'0 0.0
2014-Oct-28 05:31N 51°06' E 003°45'0 0.0
2014-Oct-28 04:27N 51°06' E 003°45'0 0.0
2014-Oct-28 03:30N 51°06' E 003°45'0 0.0
2014-Oct-28 02:29N 51°06' E 003°45'0 0.0
2014-Oct-28 01:32N 51°06' E 003°45'0 0.0
2014-Oct-28 00:32N 51°06' E 003°45'0 0.0
2014-Oct-27 23:28N 51°06' E 003°45'0 0.0
2014-Oct-27 22:16N 51°06' E 003°45'0 0.0
2014-Oct-27 21:30N 51°06' E 003°45'0 0.0
2014-Oct-27 20:33N 51°06' E 003°45'0 0.0
2014-Oct-27 19:32N 51°06' E 003°45'0 0.0
2014-Oct-27 18:32N 51°06' E 003°45'0 0.0
2014-Oct-27 17:31N 51°06' E 003°45'0 0.0
2014-Oct-27 16:31N 51°06' E 003°45'0 0.0
2014-Oct-27 15:31N 51°06' E 003°45'0 0.0
2014-Oct-27 14:31N 51°06' E 003°45'0 0.0
2014-Oct-27 13:30N 51°06' E 003°45'0 0.0
2014-Oct-27 12:29N 51°06' E 003°45'0 0.0
2014-Oct-27 11:23N 51°06' E 003°45'0 0.0
2014-Oct-27 10:28N 51°06' E 003°45'0 0.0
2014-Oct-27 09:28N 51°06' E 003°45'0 0.0
2014-Oct-27 08:33N 51°06' E 003°45'0 0.0
2014-Oct-27 07:33N 51°06' E 003°45'0 0.0
2014-Oct-27 06:33N 51°06' E 003°45'5 4.7
2014-Oct-27 05:34N 51°10' E 003°48'7 7.1
2014-Oct-27 04:33N 51°17' E 003°50'3 3.4
2014-Oct-27 03:34N 51°20' E 003°49'8 8.2
2014-Oct-27 02:33N 51°25' E 003°38'3 2.6
2014-Oct-27 01:33N 51°26' E 003°34'7 7.4
2014-Oct-27 00:33N 51°31' E 003°26'9 8.5
2014-Oct-26 23:32N 51°39' E 003°19'8 8.2
2014-Oct-26 22:32N 51°47' E 003°16'63 7.9
2014-Oct-26 14:33N 52°45' E 003°53'56 7.0
2014-Oct-26 06:33N 53°30' E 004°48'8 6.8
2014-Oct-26 05:24N 53°33' E 004°60'6 7.4
2014-Oct-26 04:33N 53°35' E 005°10'9 9.0
2014-Oct-26 03:33N 53°38' E 005°24'1010.3
2014-Oct-26 02:33N 53°41' E 005°41'1010.4
2014-Oct-26 01:33N 53°45' E 005°58'56 9.2
2014-Oct-25 19:26N 53°60' E 007°29'9 9.8
2014-Oct-25 18:33N 54°02' E 007°43'1010.4
2014-Oct-25 17:33N 54°01' E 008°01'1111.1
2014-Oct-25 16:33N 54°00' E 008°20'1212.3
2014-Oct-25 15:33N 53°56' E 008°40'10 9.7
2014-Oct-25 14:33N 53°51' E 008°53'9 8.5
2014-Oct-25 13:33N 53°53' E 009°07'2 1.7
2014-Oct-25 12:31N 53°54' E 009°09'29 6.6
2014-Oct-25 08:06N 54°17' E 009°39'4 7.7
2014-Oct-25 07:33N 54°20' E 009°44'6 5.6
2014-Oct-25 06:33N 54°21' E 009°54'6 6.0
2014-Oct-25 05:33N 54°22' E 010°04'3 2.8
2014-Oct-25 04:34N 54°22' E 010°09'3 3.2
2014-Oct-25 03:33N 54°24' E 010°12'9 9.5
2014-Oct-25 02:33N 54°31' E 010°23'38 9.3
2014-Oct-24 22:32N 54°32' E 011°28'12 9.8
2014-Oct-24 21:18N 54°27' E 011°47'7 9.7
2014-Oct-24 20:33N 54°27' E 011°59'74 8.9
2014-Oct-24 12:15N 54°48' E 014°02'7 9.5
2014-Oct-24 11:29N 54°49' E 014°14'9 9.3
2014-Oct-24 10:32N 54°49' E 014°30'9 9.5
2014-Oct-24 09:33N 54°49' E 014°46'10 9.8
2014-Oct-24 08:34N 54°49' E 015°03'10010.0
2014-Oct-23 22:33N 54°55' E 017°56'1010.2
2014-Oct-23 21:33N 54°55' E 018°14'1010.2
2014-Oct-23 20:34N 54°55' E 018°32'1010.0
2014-Oct-23 19:33N 54°52' E 018°48'1010.0
2014-Oct-23 18:33N 54°49' E 019°05'1010.1
2014-Oct-23 17:34N 54°45' E 019°21'1010.1
2014-Oct-23 16:33N 54°42' E 019°38'10 9.9
2014-Oct-23 15:33N 54°38' E 019°54'1 0.2
2014-Oct-23 11:33N 54°38' E 019°55'8 2.1
2014-Oct-23 07:30N 54°44' E 019°45'  

Dump ship's entire track history